Time;durP1;ratioP1;P1;durP2;ratioP2;P2;SDS_P1;SDS_P2;PMS_P1;PMS_P2;Temp;Humidity;BMP_temperature;BMP_pressure;BME280_temperature;BME280_humidity;BME280_pressure;Samples;Min_cycle;Max_cycle;Signal;HPM_P1;HPM_P2
2022/08/21 00:01:37;;;;;;;4.00;3.80;;;;;;;15.66;98.87;65827.09;5117565;28;20189;-70
2022/08/21 00:04:06;;;;;;;3.43;3.43;;;;;;;15.66;99.42;65827.63;5117286;28;20209;-70
2022/08/21 00:06:33;;;;;;;3.50;3.40;;;;;;;;;;5117354;28;20250;-70
2022/08/21 00:09:01;;;;;;;3.23;3.23;;;;;;;15.66;99.13;65832.88;5117201;28;20247;-70
2022/08/21 00:11:34;;;;;;;3.90;3.70;;;;;;;15.69;99.23;65830.41;5117432;28;20212;-70
2022/08/21 00:14:02;;;;;;;4.10;3.90;;;;;;;15.63;99.29;65826.91;5117612;28;20205;-70
2022/08/21 00:16:29;;;;;;;3.93;3.70;;;;;;;15.54;100.00;65813.69;5116963;28;20209;-70
2022/08/21 00:18:55;;;;;;;3.47;3.43;;;;;;;15.48;100.00;65799.16;5117279;28;20220;-70
2022/08/21 00:21:22;;;;;;;4.23;3.93;;;;;;;15.44;100.00;65805.75;5117794;28;20227;-70
2022/08/21 00:23:48;;;;;;;4.00;3.80;;;;;;;;;;5116917;28;20185;-70
2022/08/21 00:26:15;;;;;;;4.67;4.17;;;;;;;15.44;100.00;65802.56;5116801;28;20216;-70
2022/08/21 00:28:41;;;;;;;3.87;3.57;;;;;;;;;;5116796;28;20217;-70
2022/08/21 00:31:07;;;;;;;3.43;3.40;;;;;;;;;;5117269;28;20219;-70
2022/08/21 00:33:34;;;;;;;3.80;3.60;;;;;;;15.28;100.00;65785.84;5117326;28;20224;-70
2022/08/21 00:36:00;;;;;;;3.80;3.80;;;;;;;15.23;100.00;65788.16;5117127;28;20216;-70
2022/08/21 00:38:27;;;;;;;4.20;4.10;;;;;;;;;;5116625;28;20189;-70
2022/08/21 00:40:56;;;;;;;4.03;3.93;;;;;;;;;;5116568;28;20284;-70
2022/08/21 00:43:27;;;;;;;4.73;4.37;;;;;;;;;;5116860;28;20178;-70
2022/08/21 00:45:55;;;;;;;4.07;3.97;;;;;;;15.17;100.00;65773.06;5116689;28;20705;-70
2022/08/21 00:48:22;;;;;;;4.57;4.43;;;;;;;15.17;100.00;65768.41;5116399;28;20220;-70
2022/08/21 00:50:55;;;;;;;4.03;3.83;;;;;;;15.17;100.00;65778.84;5116520;28;20552;-70
2022/08/21 00:53:22;;;;;;;5.10;4.87;;;;;;;;;;5115945;28;20662;-70
2022/08/21 00:55:49;;;;;;;4.40;4.30;;;;;;;15.11;100.00;65777.41;5116535;28;20240;-70
2022/08/21 00:58:16;;;;;;;5.27;4.93;;;;;;;15.11;100.00;65770.13;5116456;28;20193;-70
2022/08/21 01:00:45;;;;;;;4.93;4.50;;;;;;;;;;5116168;28;20681;-70
2022/08/21 01:03:14;;;;;;;4.27;4.17;;;;;;;15.08;100.00;65772.03;5116150;28;20748;-70
2022/08/21 01:05:41;;;;;;;4.00;3.90;;;;;;;15.04;100.00;65759.72;5116382;28;20591;-70
2022/08/21 01:08:10;;;;;;;3.33;3.33;;;;;;;14.99;100.00;65756.75;5116048;28;20228;-70
2022/08/21 01:10:37;;;;;;;4.57;4.27;;;;;;;14.97;100.00;65754.53;5115876;28;20220;-70
2022/08/21 01:13:06;;;;;;;4.43;4.23;;;;;;;14.93;100.00;65747.50;5116113;28;20205;-70
2022/08/21 01:15:36;;;;;;;4.60;4.20;;;;;;;14.89;100.00;65743.03;5116119;28;20632;-70
2022/08/21 01:18:04;;;;;;;5.13;4.43;;;;;;;;;;5116132;28;20213;-70
2022/08/21 01:20:30;;;;;;;3.90;3.80;;;;;;;14.80;100.00;65733.03;5115804;28;20250;-70
2022/08/21 01:22:58;;;;;;;4.60;4.40;;;;;;;14.76;100.00;65728.56;5116002;28;20181;-70
2022/08/21 01:25:25;;;;;;;4.43;4.23;;;;;;;14.65;100.00;65711.66;5097611;28;20593;-70
2022/08/21 01:27:51;;;;;;;4.27;4.03;;;;;;;14.65;100.00;65711.09;5116006;28;20188;-70
2022/08/21 01:30:23;;;;;;;7.93;4.40;;;;;;;14.51;100.00;65701.88;5115846;28;20273;-70
2022/08/21 01:32:50;;;;;;;4.43;4.40;;;;;;;14.51;100.00;65701.31;5115793;28;20663;-70
2022/08/21 01:35:18;;;;;;;3.97;3.87;;;;;;;14.48;100.00;65692.75;5115540;28;20213;-70
2022/08/21 01:37:45;;;;;;;4.83;4.63;;;;;;;14.51;100.00;65703.94;5115369;28;20209;-70
2022/08/21 01:40:13;;;;;;;4.93;4.63;;;;;;;;;;5115417;28;20181;-70
2022/08/21 01:42:39;;;;;;;4.90;4.70;;;;;;;14.37;100.00;65691.50;5115885;28;20192;-70
2022/08/21 01:45:07;;;;;;;4.30;4.10;;;;;;;;;;5115321;28;20555;-70
2022/08/21 01:47:34;;;;;;;5.27;4.97;;;;;;;14.24;100.00;65674.97;5115727;28;20709;-69
2022/08/21 01:50:02;;;;;;;5.27;4.87;;;;;;;;;;5115174;28;20213;-69
2022/08/21 01:52:29;;;;;;;4.23;4.13;;;;;;;14.00;100.00;65640.47;5115102;28;20637;-69
2022/08/21 01:54:55;;;;;;;4.17;3.97;;;;;;;13.89;100.00;65634.00;5115670;28;20224;-69
2022/08/21 01:57:22;;;;;;;4.77;4.57;;;;;;;13.78;100.00;65622.34;5114977;28;20236;-70
2022/08/21 01:59:52;;;;;;;5.00;4.60;;;;;;;13.67;100.00;65609.56;5115547;28;20229;-70
2022/08/21 02:02:19;;;;;;;5.43;5.23;;;;;;;13.59;100.00;65603.84;5114949;28;20213;-70
2022/08/21 02:04:45;;;;;;;4.30;4.20;;;;;;;;;;5113946;28;20192;-70
2022/08/21 02:07:12;;;;;;;4.60;4.40;;;;;;;13.60;100.00;65604.94;5114967;28;20656;-70
2022/08/21 02:09:38;;;;;;;4.97;4.67;;;;;;;13.61;100.00;65606.06;5114844;28;20213;-70
2022/08/21 02:12:05;;;;;;;5.40;4.70;;;;;;;;;;5114987;28;20300;-70
2022/08/21 02:14:32;;;;;;;4.17;4.07;;;;;;;13.60;100.00;65602.34;5114743;28;20221;-70
2022/08/21 02:16:58;;;;;;;4.43;4.33;;;;;;;;;;5114673;28;20613;-70
2022/08/21 02:19:35;;;;;;;4.57;4.37;;;;;;;;;;5114673;28;20181;-70
2022/08/21 02:22:10;;;;;;;4.90;4.63;;;;;;;13.57;100.00;65614.63;5114871;28;20624;-70
2022/08/21 02:24:38;;;;;;;3.87;3.77;;;;;;;13.57;100.00;65599.00;5114896;28;20205;-70
2022/08/21 02:27:20;;;;;;;5.10;4.33;;;;;;;13.57;100.00;65601.03;5114596;28;20283;-70
2022/08/21 02:29:52;;;;;;;7.00;5.10;;;;;;;;;;5114759;28;20208;-70
2022/08/21 02:32:19;;;;;;;4.30;4.20;;;;;;;13.49;100.00;65585.44;5114367;28;20638;-70
2022/08/21 02:34:46;;;;;;;5.30;5.20;;;;;;;13.48;100.00;65597.38;5114393;28;20242;-70
2022/08/21 02:37:12;;;;;;;5.50;5.30;;;;;;;13.42;100.00;65585.50;5114532;28;20244;-70
2022/08/21 02:39:38;;;;;;;5.33;5.13;;;;;;;;;;5114290;28;20215;-70
2022/08/21 02:42:05;;;;;;;6.27;5.97;;;;;;;;;;5114836;28;20181;-70
2022/08/21 02:44:31;;;;;;;6.90;6.37;;;;;;;13.29;100.00;65576.28;5114458;28;20737;-70
2022/08/21 02:47:00;;;;;;;5.83;5.37;;;;;;;13.14;100.00;65554.34;5114080;28;20201;-70
2022/08/21 02:49:26;;;;;;;5.63;5.33;;;;;;;13.07;100.00;65543.97;5114137;28;20181;-70
2022/08/21 02:51:52;;;;;;;4.80;4.67;;;;;;;13.08;100.00;65563.91;5113968;28;20375;-70
2022/08/21 02:54:19;;;;;;;5.10;4.90;;;;;;;13.05;100.00;65536.56;5114391;28;20230;-69
2022/08/21 02:56:45;;;;;;;6.43;5.40;;;;;;;13.00;100.00;65544.59;5113891;28;20236;-70
2022/08/21 02:59:12;;;;;;;5.00;4.80;;;;;;;13.01;100.00;65539.94;5114537;28;20260;-69
2022/08/21 03:01:38;;;;;;;5.10;4.90;;;;;;;13.02;100.00;65538.44;5113940;28;20253;-69
2022/08/21 03:04:05;;;;;;;4.23;4.13;;;;;;;12.98;100.00;65534.53;5114178;28;20604;-69
2022/08/21 03:06:31;;;;;;;5.53;5.33;;;;;;;13.00;100.00;65539.38;5114361;28;20241;-70
2022/08/21 03:08:58;;;;;;;5.37;4.93;;;;;;;13.02;100.00;65541.59;5113868;28;20220;-70
2022/08/21 03:11:26;;;;;;;5.43;5.33;;;;;;;13.04;100.00;65540.66;5113846;28;20622;-69
2022/08/21 03:13:52;;;;;;;5.20;5.10;;;;;;;13.06;100.00;65553.28;5113841;28;20300;-69
2022/08/21 03:16:20;;;;;;;5.27;5.17;;;;;;;13.09;100.00;65559.25;5113372;28;20213;-69
2022/08/21 03:18:46;;;;;;;5.30;5.20;;;;;;;13.10;100.00;65550.47;5113742;28;20186;-69
2022/08/21 03:21:13;;;;;;;7.27;6.50;;;;;;;;;;5113973;28;20205;-69
2022/08/21 03:23:41;;;;;;;6.03;5.50;;;;;;;13.01;100.00;65539.94;5114526;28;20220;-69
2022/08/21 03:26:08;;;;;;;5.73;5.40;;;;;;;12.87;100.00;65530.69;5113618;28;20759;-69
2022/08/21 03:28:35;;;;;;;5.53;5.00;;;;;;;;;;5114203;28;20208;-69
2022/08/21 03:31:01;;;;;;;5.37;5.27;;;;;;;;;;5113875;28;20217;-69
2022/08/21 03:33:27;;;;;;;5.53;5.23;;;;;;;12.76;100.00;65513.28;5113521;28;20244;-69
2022/08/21 03:36:02;;;;;;;6.10;5.80;;;;;;;12.73;100.00;65501.59;5114022;28;20243;-69
2022/08/21 03:38:30;;;;;;;5.50;5.40;;;;;;;12.70;100.00;65498.78;5113858;28;20300;-69
2022/08/21 03:40:57;;;;;;;5.57;5.30;;;;;;;;;;5113780;28;20210;-69
2022/08/21 03:43:24;;;;;;;5.53;5.33;;;;;;;12.75;100.00;65509.56;5114079;28;20581;-69
2022/08/21 03:45:51;;;;;;;5.90;5.80;;;;;;;12.77;100.00;65513.81;5113657;28;20296;-70
2022/08/21 03:48:18;;;;;;;5.47;5.37;;;;;;;;;;5113712;28;20189;-69
2022/08/21 03:50:46;;;;;;;4.97;4.87;;;;;;;;;;5113751;28;20256;-69
2022/08/21 03:53:13;;;;;;;6.10;5.90;;;;;;;;;;5113318;28;20201;-69
2022/08/21 03:55:43;;;;;;;6.70;6.07;;;;;;;;;;5113562;28;20180;-70
2022/08/21 03:58:10;;;;;;;6.07;5.70;;;;;;;12.77;100.00;65506.00;5113386;28;20616;-69
2022/08/21 04:00:43;;;;;;;5.43;5.03;;;;;;;;;;5113667;28;20165;-69
2022/08/21 04:03:09;;;;;;;5.93;5.77;;;;;;;12.84;100.00;65522.16;5113742;28;20174;-69
2022/08/21 04:05:37;;;;;;;7.10;6.63;;;;;;;12.80;100.00;65509.91;5113874;28;20509;-69
2022/08/21 04:08:05;;;;;;;6.10;5.80;;;;;;;12.69;100.00;65508.09;5113814;28;20165;-69
2022/08/21 04:10:34;;;;;;;5.33;5.10;;;;;;;12.63;100.00;65496.22;5113596;28;20193;-70
2022/08/21 04:13:01;;;;;;;5.40;5.00;;;;;;;12.60;100.00;65495.50;5113819;28;20193;-69
2022/08/21 04:15:28;;;;;;;5.93;5.50;;;;;;;12.61;100.00;65494.56;5113136;28;20184;-70
2022/08/21 04:17:54;;;;;;;6.47;6.23;;;;;;;12.59;100.00;65491.78;5113228;28;20236;-70
2022/08/21 04:20:22;;;;;;;5.27;5.13;;;;;;;12.51;100.00;65485.53;5113180;28;20286;-70
2022/08/21 04:22:50;;;;;;;5.80;5.50;;;;;;;12.46;100.00;65477.34;5113191;28;20205;-70
2022/08/21 04:25:20;;;;;;;6.87;6.57;;;;;;;12.43;100.00;65476.63;5113136;28;20181;-70
2022/08/21 04:27:46;;;;;;;6.97;6.37;;;;;;;;;;5115776;28;20247;-70
2022/08/21 04:30:13;;;;;;;5.97;5.57;;;;;;;;;;5117399;28;20588;-70
2022/08/21 04:32:44;;;;;;;5.57;5.47;;;;;;;12.35;100.00;65468.84;5117244;28;20247;-70
2022/08/21 04:35:13;;;;;;;5.77;5.57;;;;;;;12.36;100.00;65469.97;5116737;28;20181;-70
2022/08/21 04:37:39;;;;;;;6.17;5.97;;;;;;;12.37;100.00;65481.50;5116879;28;20241;-69
2022/08/21 04:40:09;;;;;;;6.40;5.97;;;;;;;12.39;100.00;65473.31;5116639;28;20527;-69
2022/08/21 04:42:51;;;;;;;5.70;5.50;;;;;;;12.40;100.00;65474.41;5116577;28;20182;-69
2022/08/21 04:45:20;;;;;;;4.53;4.43;;;;;;;;;;5116562;28;20209;-69
2022/08/21 04:47:49;;;;;;;6.20;5.90;;;;;;;12.48;100.00;65479.56;5116947;28;20726;-70
2022/08/21 04:50:22;;;;;;;5.67;5.40;;;;;;;12.40;100.00;65471.81;5116731;28;20165;-70
2022/08/21 04:53:03;;;;;;;5.37;5.17;;;;;;;12.13;100.00;65444.44;5116320;28;20193;-69
2022/08/21 04:55:30;;;;;;;6.60;6.30;;;;;;;12.06;100.00;65439.81;5116212;28;20575;-69
2022/08/21 04:57:57;;;;;;;10.23;7.40;;;;;;;12.07;100.00;65445.56;5116272;28;20223;-69
2022/08/21 05:00:24;;;;;;;6.50;6.17;;;;;;;11.98;100.00;65425.19;5116210;28;20686;-69
2022/08/21 05:02:54;;;;;;;7.80;7.33;;;;;;;11.87;100.00;65420.78;5116162;28;20589;-69
2022/08/21 05:05:20;;;;;;;7.77;7.20;;;;;;;11.99;100.00;65428.91;5116428;28;20224;-69
2022/08/21 05:07:47;;;;;;;9.73;8.80;;;;;;;11.99;100.00;65428.91;5115999;28;20239;-70
2022/08/21 05:10:15;;;;;;;8.73;7.93;;;;;;;12.08;100.00;65436.84;5116332;28;20605;-69
2022/08/21 05:12:43;;;;;;;8.80;8.33;;;;;;;12.26;100.00;65458.31;5115777;28;20244;-69
2022/08/21 05:15:11;;;;;;;8.63;8.17;;;;;;;12.30;100.00;65463.31;5116083;28;20194;-69
2022/08/21 05:17:39;;;;;;;10.00;9.20;;;;;;;;;;5115745;28;20209;-69
2022/08/21 05:20:06;;;;;;;7.73;7.43;;;;;;;;;;5115815;28;20647;-69
2022/08/21 05:22:32;;;;;;;8.07;7.77;;;;;;;12.37;100.00;65481.50;5115775;28;20659;-69
2022/08/21 05:24:58;;;;;;;8.43;7.10;;;;;;;12.38;100.00;65461.22;5115788;28;20216;-69
2022/08/21 05:27:25;;;;;;;8.30;7.60;;;;;;;;;;5115625;28;20725;-69
2022/08/21 05:29:53;;;;;;;9.40;8.30;;;;;;;12.46;100.00;65477.34;5115890;28;20192;-69
2022/08/21 05:32:19;;;;;;;10.10;9.47;;;;;;;12.55;100.00;65492.56;5115514;28;20220;-69
2022/08/21 05:34:46;;;;;;;11.70;10.47;;;;;;;12.74;100.00;65503.25;5115865;28;20603;-69
2022/08/21 05:37:12;;;;;;;17.13;12.50;;;;;;;;;;5115553;28;20245;-70
2022/08/21 05:39:39;;;;;;;13.13;11.87;;;;;;;;;;5116103;28;20587;-70
2022/08/21 05:42:26;;;;;;;13.93;12.53;;;;;;;13.09;100.00;65546.22;5115727;28;20520;-70
2022/08/21 05:44:52;;;;;;;14.60;12.60;;;;;;;13.19;100.00;65563.09;5115924;28;20302;-70
2022/08/21 05:47:19;;;;;;;13.17;11.73;;;;;;;13.32;100.00;65574.38;5115223;28;20254;-70
2022/08/21 05:49:45;;;;;;;13.00;11.93;;;;;;;13.44;100.00;65577.28;5115779;28;20276;-70
2022/08/21 05:52:11;;;;;;;11.37;10.27;;;;;;;;;;5115185;28;20197;-70
2022/08/21 05:54:39;;;;;;;13.07;11.73;;;;;;;13.66;100.00;65603.25;5115709;28;20284;-70
2022/08/21 05:57:05;;;;;;;11.47;10.50;;;;;;;13.73;100.00;65619.41;5115340;28;20240;-70
2022/08/21 05:59:31;;;;;;;17.37;12.93;;;;;;;13.86;100.00;65624.91;5115661;28;20212;-70
2022/08/21 06:01:58;;;;;;;14.37;13.00;;;;;;;13.93;100.00;65640.50;5115097;28;20224;-69
2022/08/21 06:04:35;;;;;;;18.50;12.00;;;;;;;14.02;100.00;65653.69;5115020;28;20230;-69
2022/08/21 06:07:02;;;;;;;11.90;11.03;;;;;;;14.17;100.00;65659.38;5114964;28;20325;-70
2022/08/21 06:09:28;;;;;;;11.70;10.53;;;;;;;14.20;100.00;65667.91;5115150;28;20681;-70
2022/08/21 06:11:54;;;;;;;11.30;10.37;;;;;;;14.30;100.00;65670.66;5114928;28;20562;-70
2022/08/21 06:14:21;;;;;;;13.37;11.37;;;;;;;14.37;100.00;65686.28;5114998;28;20243;-69
2022/08/21 06:16:47;;;;;;;13.90;12.00;;;;;;;14.42;100.00;65694.44;5114653;28;20204;-69
2022/08/21 06:19:14;;;;;;;14.13;11.53;;;;;;;14.51;100.00;65696.09;5115216;28;20216;-69
2022/08/21 06:21:40;;;;;;;12.70;11.60;;;;;;;14.68;100.00;65714.44;5114922;28;20603;-69
2022/08/21 06:24:06;;;;;;;12.33;11.17;;;;;;;;;;5114588;28;20220;-69
2022/08/21 06:26:33;;;;;;;10.33;9.63;;;;;;;;;;5114988;28;20288;-70
2022/08/21 06:28:59;;;;;;;11.63;10.73;;;;;;;14.96;100.00;65750.81;5114502;28;20215;-70
2022/08/21 06:31:27;;;;;;;11.00;10.10;;;;;;;15.10;100.00;65766.41;5114453;28;20251;-70
2022/08/21 06:33:54;;;;;;;11.47;10.67;;;;;;;;;;5114621;28;20235;-70
2022/08/21 06:36:21;;;;;;;14.73;11.00;;;;;;;;;;5114594;28;20209;-70
2022/08/21 06:38:47;;;;;;;11.17;8.80;;;;;;;;;;5114287;28;20230;-70
2022/08/21 06:41:17;;;;;;;9.83;9.00;;;;;;;15.44;100.00;65797.91;5114229;28;20185;-70
2022/08/21 06:43:49;;;;;;;8.50;7.77;;;;;;;15.43;100.00;65796.78;5114567;28;20204;-70
2022/08/21 06:46:15;;;;;;;10.57;9.53;;;;;;;;;;5114381;28;20247;-70
2022/08/21 06:48:42;;;;;;;9.00;8.37;;;;;;;;;;5114075;28;20213;-70
2022/08/21 06:51:09;;;;;;;10.80;10.13;;;;;;;15.60;99.02;65820.38;5114287;28;20256;-70
2022/08/21 06:53:35;;;;;;;9.80;8.97;;;;;;;;;;5114017;28;20237;-70
2022/08/21 06:56:02;;;;;;;13.10;9.30;;;;;;;;;;5114228;28;20240;-70
2022/08/21 06:58:28;;;;;;;7.83;7.43;;;;;;;;;;5114248;28;20224;-70
2022/08/21 07:00:55;;;;;;;10.50;9.43;;;;;;;;;;5113983;28;20216;-70
2022/08/21 07:03:35;;;;;;;14.13;8.77;;;;;;;15.96;96.47;65852.06;5114280;28;20230;-70
2022/08/21 07:06:03;;;;;;;9.83;8.93;;;;;;;16.03;95.50;65867.72;5114173;28;20296;-70
2022/08/21 07:08:29;;;;;;;9.67;8.77;;;;;;;16.05;95.97;65864.72;5114446;28;20219;-70
2022/08/21 07:10:56;;;;;;;9.13;8.53;;;;;;;;;;5113670;28;20686;-70
2022/08/21 07:13:23;;;;;;;10.07;9.13;;;;;;;16.20;94.91;65878.25;5113713;28;20244;-70
2022/08/21 07:15:50;;;;;;;9.20;8.80;;;;;;;;;;5113986;28;20620;-70
2022/08/21 07:18:16;;;;;;;10.37;9.47;;;;;;;16.27;95.35;65888.66;5114254;28;20253;-70
2022/08/21 07:20:43;;;;;;;15.90;9.77;;;;;;;;;;5113730;28;20264;-70
2022/08/21 07:23:30;;;;;;;12.80;9.27;;;;;;;;;;5114215;28;20235;-70
2022/08/21 07:25:56;;;;;;;9.27;8.50;;;;;;;16.50;94.14;65914.28;5113243;28;20255;-70
2022/08/21 07:28:23;;;;;;;7.80;7.03;;;;;;;16.60;93.65;65929.56;5114038;28;20550;-70
2022/08/21 07:30:54;;;;;;;7.20;6.63;;;;;;;;;;5113658;28;20209;-70
2022/08/21 07:33:20;;;;;;;7.37;6.80;;;;;;;;;;5114149;28;20213;-70
2022/08/21 07:35:47;;;;;;;8.20;7.03;;;;;;;16.61;91.48;65925.44;5113766;28;20248;-69
2022/08/21 07:38:13;;;;;;;6.93;6.13;;;;;;;;;;5113598;28;20217;-69
2022/08/21 07:40:40;;;;;;;7.40;6.87;;;;;;;;;;5113798;28;20589;-70
2022/08/21 07:43:06;;;;;;;10.33;6.20;;;;;;;;;;5114096;28;20185;-69
2022/08/21 07:45:33;;;;;;;5.97;5.50;;;;;;;16.84;91.75;65958.38;5113790;28;20260;-70
2022/08/21 07:47:59;;;;;;;7.30;6.50;;;;;;;;;;5113717;28;20213;-70
2022/08/21 07:50:26;;;;;;;11.10;6.33;;;;;;;16.90;90.73;65954.59;5113489;28;20224;-70
2022/08/21 07:52:52;;;;;;;6.93;6.13;;;;;;;16.69;90.17;65934.91;5113592;28;20243;-69
2022/08/21 07:55:21;;;;;;;6.43;5.47;;;;;;;16.57;90.42;65921.50;5113936;28;20205;-69
2022/08/21 07:57:47;;;;;;;5.80;5.40;;;;;;;;;;5113251;28;20228;-70
2022/08/21 08:00:18;;;;;;;6.73;6.10;;;;;;;16.63;89.61;65935.50;5113389;28;20200;-71
2022/08/21 08:02:46;;;;;;;5.87;5.37;;;;;;;;;;5115871;28;20173;-70
2022/08/21 08:05:12;;;;;;;5.47;4.97;;;;;;;16.63;89.43;65932.88;5117292;28;20268;-70
2022/08/21 08:07:39;;;;;;;6.17;5.67;;;;;;;;;;5117271;28;20553;-70
2022/08/21 08:10:07;;;;;;;5.43;5.03;;;;;;;16.69;88.90;65932.28;5117225;28;20185;-70
2022/08/21 08:12:35;;;;;;;5.73;5.40;;;;;;;;;;5117253;28;20559;-69
2022/08/21 08:15:02;;;;;;;7.17;4.47;;;;;;;;;;5117317;28;20247;-70
2022/08/21 08:17:29;;;;;;;5.50;4.70;;;;;;;17.01;86.58;65974.72;5116967;28;20213;-70
2022/08/21 08:19:55;;;;;;;4.80;4.20;;;;;;;;;;5117232;28;20190;-69
2022/08/21 08:22:25;;;;;;;4.40;4.20;;;;;;;17.02;85.84;65970.59;5116990;28;20224;-69
2022/08/21 08:24:52;;;;;;;6.10;4.70;;;;;;;;;;5117545;28;20224;-70
2022/08/21 08:27:19;;;;;;;9.27;4.83;;;;;;;17.30;85.00;65999.19;5116817;28;20288;-70
2022/08/21 08:29:45;;;;;;;5.50;4.60;;;;;;;;;;5116820;28;20663;-70
2022/08/21 08:32:12;;;;;;;4.13;3.60;;;;;;;;;;5116771;28;20208;-70
2022/08/21 08:34:39;;;;;;;4.23;4.00;;;;;;;17.58;84.07;66037.72;5116663;28;20240;-70
2022/08/21 08:37:06;;;;;;;7.03;4.83;;;;;;;;;;5116641;28;20631;-70
2022/08/21 08:39:33;;;;;;;4.63;3.83;;;;;;;;;;5116614;28;20553;-70
2022/08/21 08:42:09;;;;;;;4.67;3.80;;;;;;;;;;5116982;28;20185;-70
2022/08/21 08:45:01;;;;;;;9.57;3.67;;;;;;;;;;5116814;28;20264;-70
2022/08/21 08:47:29;;;;;;;5.13;4.73;;;;;;;;;;5116526;28;20201;-70
2022/08/21 08:50:05;;;;;;;4.20;4.00;;;;;;;17.70;82.15;66044.72;5116709;28;20201;-70
2022/08/21 08:52:34;;;;;;;4.00;3.70;;;;;;;17.74;82.26;66047.16;5098135;28;20253;-70
2022/08/21 08:55:09;;;;;;;3.17;2.77;;;;;;;18.02;79.49;66087.78;5116278;28;20221;-70
2022/08/21 08:57:37;;;;;;;3.37;3.10;;;;;;;;;;5097959;28;20212;-71
2022/08/21 09:00:10;;;;;;;3.10;2.90;;;;;;;18.33;80.03;66111.84;5116378;28;20185;-71
2022/08/21 09:02:42;;;;;;;5.00;3.50;;;;;;;18.33;79.91;66113.91;5116511;28;20616;-70
2022/08/21 09:05:26;;;;;;;3.70;3.50;;;;;;;18.73;77.51;66154.84;5116261;28;20201;-70
2022/08/21 09:08:11;;;;;;;3.80;2.83;;;;;;;;;;5116336;28;20234;-70
2022/08/21 09:10:50;;;;;;;3.80;2.77;;;;;;;18.31;78.49;66116.94;5116274;28;20198;-71
2022/08/21 09:13:16;;;;;;;3.60;3.40;;;;;;;;;;5115898;28;20217;-71
2022/08/21 09:16:13;;;;;;;3.90;2.23;;;;;;;18.50;76.53;66132.88;5116002;28;20189;-71
2022/08/21 09:18:46;;;;;;;2.60;2.40;;;;;;;;;;5097825;28;20186;-71
2022/08/21 09:21:31;;;;;;;3.77;2.37;;;;;;;;;;5116097;28;20264;-71
2022/08/21 09:24:00;;;;;;;5.30;3.33;;;;;;;;;;5115886;28;20245;-71
2022/08/21 09:26:44;;;;;;;3.37;2.30;;;;;;;18.12;76.96;66096.84;5116291;28;20209;-72
2022/08/21 09:29:11;;;;;;;2.93;2.47;;;;;;;;;;5116043;28;20593;-72
2022/08/21 09:31:37;;;;;;;3.17;2.53;;;;;;;;;;5115959;28;20202;-71
2022/08/21 09:34:08;;;;;;;3.73;1.93;;;;;;;18.45;75.40;66132.00;5115488;28;20239;-71
2022/08/21 09:36:42;;;;;;;1.40;1.40;;;;;;;;;;5097305;28;20241;-71
2022/08/21 09:39:11;;;;;;;2.00;1.87;;;;;;;18.81;73.89;66164.31;5097242;28;20189;-71
2022/08/21 09:41:38;;;;;;;1.77;1.70;;;;;;;;;;5115786;28;20235;-71
2022/08/21 09:44:07;;;;;;;1.43;1.30;;;;;;;18.54;74.33;66142.06;5115405;28;20230;-72
2022/08/21 09:46:35;;;;;;;5.77;2.30;;;;;;;;;;5115348;28;20205;-71
2022/08/21 09:49:03;;;;;;;2.13;2.03;;;;;;;18.89;73.06;66181.16;5115321;28;20221;-71
2022/08/21 09:51:36;;;;;;;3.37;2.03;;;;;;;18.76;72.93;66161.38;5115845;28;20205;-72
2022/08/21 09:54:05;;;;;;;2.47;2.27;;;;;;;;;;5115504;28;20235;-71
2022/08/21 09:59:30;;;;;;;4.43;1.83;;;;;;;19.46;69.98;66235.22;5115141;28;20216;-71
2022/08/21 10:02:22;;;;;;;3.70;1.67;;;;;;;19.18;68.64;66207.72;5115302;28;20535;-71
2022/08/21 10:04:51;;;;;;;1.50;1.50;;;;;;;19.11;71.14;66196.69;5115291;28;20181;-71
2022/08/21 10:07:20;;;;;;;1.57;1.47;;;;;;;;;;5115184;28;20212;-71
2022/08/21 10:09:57;;;;;;;1.30;1.30;;;;;;;;;;5097181;28;20217;-71
2022/08/21 10:12:28;;;;;;;1.80;1.73;;;;;;;;;;5114696;28;20205;-72
2022/08/21 10:15:22;;;;;;;1.00;1.00;;;;;;;19.68;67.42;66262.47;5115366;28;20231;-72
2022/08/21 10:18:00;;;;;;;1.53;1.27;;;;;;;;;;5115068;28;20209;-71
2022/08/21 10:20:30;;;;;;;6.90;1.60;;;;;;;;;;5115043;28;20217;-71
2022/08/21 10:23:29;;;;;;;2.07;1.43;;;;;;;19.78;68.62;66273.06;5114916;28;20613;-71
2022/08/21 10:26:12;;;;;;;2.13;1.40;;;;;;;20.13;67.68;66319.53;5096206;28;20201;-72
2022/08/21 10:28:51;;;;;;;1.20;1.20;;;;;;;;;;5114525;28;20201;-71
2022/08/21 10:31:23;;;;;;;1.37;1.37;;;;;;;;;;5114723;28;20212;-71
2022/08/21 10:34:13;;;;;;;1.53;1.43;;;;;;;19.67;66.95;66260.78;5114923;28;20200;-71
2022/08/21 10:36:47;;;;;;;1.10;1.10;;;;;;;19.78;65.56;66273.06;5114931;28;20208;-72
2022/08/21 10:39:16;;;;;;;1.40;1.40;;;;;;;;;;5114924;28;20212;-71
2022/08/21 10:42:35;;;;;;;1.30;1.30;;;;;;;19.98;66.27;66292.78;5114546;28;20672;-72
2022/08/21 10:45:15;;;;;;;1.47;1.20;;;;;;;;;;5114235;28;20216;-72
2022/08/21 10:47:46;;;;;;;1.20;1.20;;;;;;;;;;5114227;28;20205;-72
2022/08/21 10:50:15;;;;;;;1.80;1.70;;;;;;;;;;5114453;28;20215;-72
2022/08/21 10:53:00;;;;;;;3.13;1.90;;;;;;;20.10;68.38;66313.00;5114594;28;20213;-71
2022/08/21 10:55:32;;;;;;;1.53;1.53;;;;;;;;;;5114368;28;20196;-72
2022/08/21 10:58:08;;;;;;;1.67;1.57;;;;;;;19.71;67.67;66265.25;5114733;28;20268;-72
2022/08/21 11:00:39;;;;;;;1.33;1.33;;;;;;;;;;5114084;28;20205;-71
2022/08/21 11:03:37;;;;;;;2.50;1.40;;;;;;;20.01;66.69;66306.13;5114022;28;20219;-72
2022/08/21 11:06:18;;;;;;;1.97;1.87;;;;;;;20.46;67.33;66347.97;5058401;28;20220;-72
2022/08/21 11:08:49;;;;;;;1.63;1.50;;;;;;;;;;5114507;28;20203;-72
2022/08/21 11:11:24;;;;;;;1.00;1.00;;;;;;;20.34;63.52;66342.44;5114104;28;20278;-71
2022/08/21 11:14:02;;;;;;;1.50;1.50;;;;;;;20.22;65.17;66329.03;5114081;28;20177;-71
2022/08/21 11:16:42;;;;;;;2.17;0.93;;;;;;;;;;5114067;28;20208;-72
2022/08/21 11:19:24;;;;;;;5.20;1.10;;;;;;;20.32;66.92;66338.13;5114321;28;20208;-72
2022/08/21 11:22:13;;;;;;;1.73;1.23;;;;;;;20.49;65.37;66348.69;5114101;28;20201;-72
2022/08/21 11:24:50;;;;;;;1.73;1.00;;;;;;;;;;5100571;28;20225;-71
2022/08/21 11:27:25;;;;;;;1.23;1.23;;;;;;;20.86;63.16;66400.06;5113949;28;20252;-71
2022/08/21 11:29:58;;;;;;;1.43;1.37;;;;;;;20.80;63.80;66384.88;5114360;28;20173;-71
2022/08/21 11:32:42;;;;;;;1.03;1.03;;;;;;;;;;5113981;28;20201;-72
2022/08/21 11:35:28;;;;;;;4.33;1.10;;;;;;;20.79;64.28;66384.31;5113594;28;20280;-71
2022/08/21 11:37:58;;;;;;;1.40;1.30;;;;;;;;;;5118734;28;20631;-72
2022/08/21 11:40:52;;;;;;;1.03;1.03;;;;;;;20.94;62.71;66399.97;5117852;28;20228;-72
2022/08/21 11:43:28;;;;;;;1.57;0.90;;;;;;;21.02;60.79;66409.47;5118446;28;20635;-71
2022/08/21 11:46:03;;;;;;;2.83;1.23;;;;;;;20.83;61.19;66388.22;5117944;28;20250;-71
2022/08/21 11:48:55;;;;;;;2.63;1.17;;;;;;;20.67;63.18;66368.25;5118517;28;20665;-71
2022/08/21 11:51:26;;;;;;;1.20;1.20;;;;;;;;;;5117379;28;20549;-72
2022/08/21 11:54:03;;;;;;;1.50;1.30;;;;;;;;;;5117784;28;20205;-72
2022/08/21 11:56:44;;;;;;;1.20;1.20;;;;;;;;;;5117746;28;20254;-72
2022/08/21 11:59:13;;;;;;;1.40;1.30;;;;;;;;;;5117523;28;20205;-72
2022/08/21 12:01:44;;;;;;;1.40;1.30;;;;;;;20.79;62.71;66381.69;5117717;28;20550;-72
2022/08/21 12:04:29;;;;;;;3.17;1.40;;;;;;;20.93;62.07;66398.84;5117675;28;20201;-71
2022/08/21 12:06:55;;;;;;;1.93;1.70;;;;;;;;;;5117371;28;20209;-72
2022/08/21 12:09:25;;;;;;;1.43;1.30;;;;;;;;;;5117819;28;20219;-72
2022/08/21 12:12:06;;;;;;;1.43;1.43;;;;;;;;;;5117334;28;20641;-73
2022/08/21 12:14:39;;;;;;;1.30;1.30;;;;;;;21.22;60.27;66431.28;5117078;28;20205;-72
2022/08/21 12:17:07;;;;;;;1.23;1.23;;;;;;;;;;5117021;28;20225;-71
2022/08/21 12:19:37;;;;;;;1.80;1.40;;;;;;;21.42;60.68;66453.66;5117323;28;20530;-71
2022/08/21 12:22:04;;;;;;;1.67;1.57;;;;;;;21.43;59.94;66459.50;5117828;28;20205;-71
2022/08/21 12:25:03;;;;;;;1.30;1.30;;;;;;;21.57;60.97;66475.19;5116977;28;20668;-72
2022/08/21 12:27:45;;;;;;;1.30;1.30;;;;;;;21.35;60.50;66445.84;5117117;28;20213;-72
2022/08/21 12:30:36;;;;;;;1.10;1.10;;;;;;;21.18;61.02;66424.16;5117456;28;20205;-71
2022/08/21 12:33:05;;;;;;;2.40;1.40;;;;;;;;;;5117428;28;20178;-72
2022/08/21 12:35:43;;;;;;;0.80;0.80;;;;;;;21.23;61.71;66439.78;5116615;28;20241;-73
2022/08/21 12:38:17;;;;;;;1.20;1.20;;;;;;;21.57;60.84;66466.69;5117279;28;20201;-72
2022/08/21 12:41:02;;;;;;;1.40;1.40;;;;;;;21.68;60.89;66482.22;5116966;28;20219;-71
2022/08/21 12:43:34;;;;;;;1.40;1.30;;;;;;;21.58;60.58;66470.47;5116700;28;20204;-72
2022/08/21 12:46:04;;;;;;;5.50;1.30;;;;;;;21.59;58.97;66469.50;5117069;28;20235;-72
2022/08/21 12:48:49;;;;;;;1.17;1.13;;;;;;;;;;5115519;28;20217;-71